createdAt,value
2023-07-03T00:00:55.037Z,94955.00
2023-07-03T00:01:55.165Z,94957.00
2023-07-03T00:02:55.250Z,94953.00
2023-07-03T00:03:55.267Z,94951.00
2023-07-03T00:04:55.468Z,94953.00
2023-07-03T00:05:55.373Z,94955.00
2023-07-03T00:06:55.410Z,94953.00
2023-07-03T00:07:55.477Z,94951.00
2023-07-03T00:08:55.512Z,94949.00
2023-07-03T00:09:55.585Z,94947.00
2023-07-03T00:10:55.640Z,94947.00
2023-07-03T00:11:55.698Z,94945.00
2023-07-03T00:12:55.751Z,94945.00
2023-07-03T00:13:55.858Z,94943.00
2023-07-03T00:14:55.891Z,94943.00
2023-07-03T00:15:55.939Z,94945.00
2023-07-03T00:16:56.061Z,94947.00
2023-07-03T00:17:56.146Z,94949.00
2023-07-03T00:18:56.133Z,94947.00
2023-07-03T00:19:56.166Z,94947.00
2023-07-03T00:20:56.204Z,94949.00
2023-07-03T00:21:56.213Z,94947.00
2023-07-03T00:22:56.294Z,94947.00
2023-07-03T00:23:56.401Z,94949.00
2023-07-03T00:24:56.359Z,94949.00
2023-07-03T00:25:56.365Z,94949.00
2023-07-03T00:26:56.342Z,94949.00
2023-07-03T00:27:56.345Z,94947.00
2023-07-03T00:28:56.379Z,94947.00
2023-07-03T00:29:56.334Z,94947.00
2023-07-03T00:30:56.325Z,94951.00
2023-07-03T00:31:56.442Z,94951.00
2023-07-03T00:32:56.357Z,94953.00
2023-07-03T00:33:56.318Z,94957.00
2023-07-03T00:34:56.410Z,94959.00
2023-07-03T00:35:56.418Z,94959.00
2023-07-03T00:36:56.429Z,94963.00
2023-07-03T00:37:56.426Z,94959.00
2023-07-03T00:38:56.456Z,94959.00
2023-07-03T00:39:56.505Z,94957.00
2023-07-03T00:40:56.511Z,94957.00
2023-07-03T00:41:56.499Z,94959.00
2023-07-03T00:42:56.522Z,94955.00
2023-07-03T00:43:56.529Z,94955.00
2023-07-03T00:44:56.558Z,94953.00
2023-07-03T00:45:56.601Z,94955.00
2023-07-03T00:46:56.595Z,94955.00
2023-07-03T00:47:56.648Z,94955.00
2023-07-03T00:48:56.661Z,94955.00
2023-07-03T00:49:56.631Z,94955.00
2023-07-03T00:50:56.678Z,94957.00
2023-07-03T00:51:56.721Z,94957.00
2023-07-03T00:52:56.730Z,94955.00
2023-07-03T00:53:56.746Z,94957.00
2023-07-03T00:54:56.813Z,94957.00
2023-07-03T00:55:56.821Z,94957.00
2023-07-03T00:56:56.852Z,94957.00
2023-07-03T00:57:56.860Z,94959.00
2023-07-03T00:58:56.908Z,94957.00
2023-07-03T00:59:56.904Z,94955.00
2023-07-03T01:00:56.994Z,94953.00
2023-07-03T01:01:57.114Z,94955.00
2023-07-03T01:02:57.081Z,94959.00
2023-07-03T01:03:57.062Z,94961.00
2023-07-03T01:04:57.277Z,94961.00
2023-07-03T01:05:57.317Z,94963.00
2023-07-03T01:06:57.196Z,94963.00
2023-07-03T01:07:57.258Z,94963.00
2023-07-03T01:08:57.282Z,94965.00
2023-07-03T01:09:57.316Z,94965.00
2023-07-03T01:10:57.349Z,94963.00
2023-07-03T01:11:57.415Z,94967.00
2023-07-03T01:12:57.464Z,94969.00
2023-07-03T01:13:57.480Z,94965.00
2023-07-03T01:14:57.484Z,94967.00
2023-07-03T01:15:57.573Z,94967.00
2023-07-03T01:16:57.614Z,94967.00
2023-07-03T01:17:57.712Z,94967.00
2023-07-03T01:18:57.686Z,94967.00
2023-07-03T01:19:57.696Z,94969.00
2023-07-03T01:20:57.745Z,94969.00
2023-07-03T01:21:57.772Z,94975.00
2023-07-03T01:22:57.825Z,94971.00
2023-07-03T01:23:57.881Z,94973.00
2023-07-03T01:24:57.934Z,94981.00
2023-07-03T01:25:57.983Z,94979.00
2023-07-03T01:26:58.092Z,94973.00
2023-07-03T01:27:58.101Z,94975.00
2023-07-03T01:28:58.173Z,94975.00
2023-07-03T01:29:58.217Z,94975.00
2023-07-03T01:30:58.280Z,94975.00
2023-07-03T01:31:58.419Z,94977.00
2023-07-03T01:32:58.535Z,94977.00
2023-07-03T01:33:58.451Z,94975.00
2023-07-03T01:34:58.519Z,94977.00
2023-07-03T01:35:58.577Z,94979.00
2023-07-03T01:36:58.621Z,94979.00
2023-07-03T01:37:58.665Z,94979.00
2023-07-03T01:38:58.759Z,94977.00
2023-07-03T01:39:58.784Z,94977.00
2023-07-03T01:40:58.854Z,94975.00
2023-07-03T01:41:58.937Z,94979.00
2023-07-03T01:42:58.999Z,94981.00
2023-07-03T01:43:59.052Z,94979.00
2023-07-03T01:44:59.093Z,94981.00
2023-07-03T01:45:59.134Z,94981.00
2023-07-03T01:46:59.244Z,94981.00
2023-07-03T01:47:59.269Z,94982.00
2023-07-03T01:48:59.314Z,94981.00
2023-07-03T01:49:59.361Z,94981.00
2023-07-03T01:50:59.389Z,94981.00
2023-07-03T01:51:59.450Z,94981.00
2023-07-03T01:52:59.501Z,94979.00
2023-07-03T01:53:59.564Z,94981.00
2023-07-03T01:54:59.615Z,94979.00
2023-07-03T01:55:59.708Z,94981.00
2023-07-03T01:56:59.761Z,94982.00
2023-07-03T01:57:59.878Z,94979.00
2023-07-03T01:58:59.849Z,94982.00
2023-07-03T01:59:59.927Z,94979.00
2023-07-03T02:01:00.042Z,94979.00
2023-07-03T02:02:00.060Z,94973.00
2023-07-03T02:03:00.192Z,94971.00
2023-07-03T02:04:00.123Z,94971.00
2023-07-03T02:05:00.269Z,94973.00
2023-07-03T02:06:00.256Z,94967.00
2023-07-03T02:07:00.319Z,94967.00
2023-07-03T02:08:00.330Z,94967.00
2023-07-03T02:09:00.437Z,94965.00
2023-07-03T02:10:00.493Z,94963.00
2023-07-03T02:11:00.577Z,94965.00
2023-07-03T02:12:00.627Z,94965.00
2023-07-03T02:13:00.692Z,94967.00
2023-07-03T02:14:00.724Z,94967.00
2023-07-03T02:15:00.773Z,94971.00
2023-07-03T02:16:00.858Z,94969.00
2023-07-03T02:17:01.054Z,94973.00
2023-07-03T02:18:00.996Z,94969.00
2023-07-03T02:19:01.029Z,94971.00
2023-07-03T02:20:01.100Z,94971.00
2023-07-03T02:21:01.150Z,94973.00
2023-07-03T02:22:01.240Z,94973.00
2023-07-03T02:23:01.329Z,94969.00
2023-07-03T02:24:01.305Z,94973.00
2023-07-03T02:25:01.404Z,94973.00
2023-07-03T02:26:01.488Z,94971.00
2023-07-03T02:27:01.536Z,94971.00
2023-07-03T02:28:01.553Z,94971.00
2023-07-03T02:29:01.613Z,94965.00
2023-07-03T02:30:01.693Z,94967.00
2023-07-03T02:31:01.802Z,94967.00
2023-07-03T02:32:01.802Z,94967.00
2023-07-03T02:33:01.874Z,94967.00
2023-07-03T02:34:01.882Z,94969.00
2023-07-03T02:35:01.994Z,94969.00
2023-07-03T02:36:01.986Z,94969.00
2023-07-03T02:37:02.011Z,94971.00
2023-07-03T02:38:02.065Z,94971.00
2023-07-03T02:39:02.160Z,94971.00
2023-07-03T02:40:02.181Z,94969.00
2023-07-03T02:41:02.295Z,94967.00
2023-07-03T02:42:02.305Z,94971.00
2023-07-03T02:43:02.363Z,94971.00
2023-07-03T02:44:02.394Z,94969.00
2023-07-03T02:45:02.472Z,94967.00
2023-07-03T02:46:02.527Z,94971.00
2023-07-03T02:47:02.648Z,94965.00
2023-07-03T02:48:02.712Z,94967.00
2023-07-03T02:49:02.718Z,94967.00
2023-07-03T02:50:02.880Z,94967.00
2023-07-03T02:51:02.900Z,94969.00
2023-07-03T02:52:02.877Z,94967.00
2023-07-03T02:53:02.943Z,94967.00
2023-07-03T02:54:03.021Z,94969.00
2023-07-03T02:55:03.081Z,94969.00
2023-07-03T02:56:03.161Z,94967.00
2023-07-03T02:57:03.244Z,94969.00
2023-07-03T02:58:03.277Z,94965.00
2023-07-03T02:59:03.368Z,94965.00
2023-07-03T03:00:03.391Z,94971.00
2023-07-03T03:01:03.453Z,94969.00
2023-07-03T03:02:03.509Z,94965.00
2023-07-03T03:03:03.708Z,94965.00
2023-07-03T03:04:03.638Z,94965.00
2023-07-03T03:05:03.743Z,94965.00
2023-07-03T03:06:03.754Z,94965.00
2023-07-03T03:07:03.792Z,94967.00
2023-07-03T03:08:03.877Z,94969.00
2023-07-03T03:09:03.936Z,94969.00
2023-07-03T03:10:03.977Z,94965.00
2023-07-03T03:11:04.097Z,94963.00
2023-07-03T03:12:04.095Z,94967.00
2023-07-03T03:13:04.143Z,94967.00
2023-07-03T03:14:04.219Z,94967.00
2023-07-03T03:15:04.273Z,94969.00
2023-07-03T03:16:04.321Z,94967.00
2023-07-03T03:17:04.383Z,94967.00
2023-07-03T03:18:04.523Z,94969.00
2023-07-03T03:19:04.482Z,94969.00
2023-07-03T03:20:04.520Z,94969.00
2023-07-03T03:21:04.530Z,94973.00
2023-07-03T03:22:04.517Z,94967.00
2023-07-03T03:23:04.557Z,94969.00
2023-07-03T03:24:04.559Z,94969.00
2023-07-03T03:25:04.584Z,94971.00
2023-07-03T03:26:04.597Z,94967.00
2023-07-03T03:27:04.625Z,94967.00
2023-07-03T03:28:04.688Z,94967.00
2023-07-03T03:29:04.702Z,94965.00
2023-07-03T03:30:04.739Z,94965.00
2023-07-03T03:31:04.807Z,94965.00
2023-07-03T03:32:04.759Z,94969.00
2023-07-03T03:33:04.768Z,94967.00
2023-07-03T03:34:04.859Z,94969.00
2023-07-03T03:35:05.007Z,94971.00
2023-07-03T03:36:04.918Z,94971.00
2023-07-03T03:37:04.959Z,94971.00
2023-07-03T03:38:05.001Z,94971.00
2023-07-03T03:39:04.990Z,94967.00
2023-07-03T03:40:04.991Z,94967.00
2023-07-03T03:41:05.024Z,94969.00
2023-07-03T03:42:05.034Z,94969.00
2023-07-03T03:43:05.030Z,94969.00
2023-07-03T03:44:05.034Z,94969.00
2023-07-03T03:45:05.055Z,94965.00
2023-07-03T03:46:05.053Z,94967.00
2023-07-03T03:47:05.050Z,94967.00
2023-07-03T03:48:05.216Z,94967.00
2023-07-03T03:49:05.048Z,94971.00
2023-07-03T03:50:05.078Z,94971.00
2023-07-03T03:51:05.073Z,94973.00
2023-07-03T03:52:05.100Z,94971.00
2023-07-03T03:53:05.150Z,94971.00
2023-07-03T03:54:05.153Z,94973.00
2023-07-03T03:55:05.160Z,94971.00
2023-07-03T03:56:05.193Z,94973.00
2023-07-03T03:57:05.281Z,94973.00
2023-07-03T03:58:05.256Z,94975.00
2023-07-03T03:59:05.271Z,94977.00
2023-07-03T04:00:05.262Z,94973.00
2023-07-03T04:01:05.277Z,94975.00
2023-07-03T04:02:05.302Z,94977.00
2023-07-03T04:03:05.297Z,94977.00
2023-07-03T04:04:05.284Z,94977.00
2023-07-03T04:05:05.301Z,94979.00
2023-07-03T04:06:05.302Z,94981.00
2023-07-03T04:07:05.304Z,94979.00
2023-07-03T04:08:05.358Z,94981.00
2023-07-03T04:09:05.313Z,94981.00
2023-07-03T04:10:05.302Z,94979.00
2023-07-03T04:11:05.334Z,94981.00
2023-07-03T04:12:05.317Z,94981.00
2023-07-03T04:13:05.368Z,94984.00
2023-07-03T04:14:05.368Z,94986.00
2023-07-03T04:15:05.382Z,94986.00
2023-07-03T04:16:05.371Z,94982.00
2023-07-03T04:17:05.346Z,94982.00
2023-07-03T04:18:05.354Z,94984.00
2023-07-03T04:19:05.353Z,94986.00
2023-07-03T04:20:05.372Z,94986.00
2023-07-03T04:21:05.338Z,94986.00
2023-07-03T04:22:05.351Z,94988.00
2023-07-03T04:23:05.347Z,94990.00
2023-07-03T04:24:05.396Z,94990.00
2023-07-03T04:25:05.339Z,94990.00
2023-07-03T04:26:05.351Z,94988.00
2023-07-03T04:27:05.363Z,94990.00
2023-07-03T04:28:05.355Z,94988.00
2023-07-03T04:29:05.356Z,94990.00
2023-07-03T04:30:05.353Z,94992.00
2023-07-03T04:31:05.387Z,94992.00
2023-07-03T04:32:05.404Z,94992.00
2023-07-03T04:33:05.418Z,94990.00
2023-07-03T04:34:05.394Z,94992.00
2023-07-03T04:35:05.430Z,94990.00
2023-07-03T04:36:05.410Z,94994.00
2023-07-03T04:37:05.513Z,94994.00
2023-07-03T04:38:05.436Z,94998.00
2023-07-03T04:39:05.421Z,94996.00
2023-07-03T04:40:05.474Z,94996.00
2023-07-03T04:41:05.448Z,94996.00
2023-07-03T04:42:05.456Z,94994.00
2023-07-03T04:43:05.446Z,94992.00
2023-07-03T04:44:05.454Z,94994.00
2023-07-03T04:45:05.462Z,94994.00
2023-07-03T04:46:05.499Z,94992.00
2023-07-03T04:47:05.457Z,94990.00
2023-07-03T04:48:05.473Z,94990.00
2023-07-03T04:49:05.428Z,94990.00
2023-07-03T04:50:05.457Z,94990.00
2023-07-03T04:51:05.474Z,94988.00
2023-07-03T04:52:05.500Z,94986.00
2023-07-03T04:53:05.482Z,94988.00
2023-07-03T04:54:05.470Z,94988.00
2023-07-03T04:55:05.517Z,94986.00
2023-07-03T04:56:05.496Z,94988.00
2023-07-03T04:57:05.540Z,94988.00
2023-07-03T04:58:05.488Z,94988.00
2023-07-03T04:59:05.507Z,94992.00
2023-07-03T05:00:05.537Z,94988.00
2023-07-03T05:02:24.947Z,94992.00
2023-07-03T05:03:24.957Z,94990.00
2023-07-03T05:04:24.848Z,94996.00
2023-07-03T05:05:24.777Z,94994.00
2023-07-03T05:06:24.877Z,94994.00
2023-07-03T05:07:24.768Z,94994.00
2023-07-03T05:08:24.750Z,94994.00
2023-07-03T05:09:24.774Z,94994.00
2023-07-03T05:10:24.774Z,94994.00
2023-07-03T05:11:24.767Z,94996.00
2023-07-03T05:12:24.771Z,94996.00
2023-07-03T05:13:24.742Z,94996.00
2023-07-03T05:14:24.758Z,94994.00
2023-07-03T05:15:24.733Z,94994.00
2023-07-03T05:16:24.868Z,94992.00
2023-07-03T05:17:24.742Z,94996.00
2023-07-03T05:18:24.664Z,94996.00
2023-07-03T05:19:24.700Z,94996.00
2023-07-03T05:20:24.684Z,94996.00
2023-07-03T05:21:24.789Z,94998.00
2023-07-03T05:22:24.685Z,94998.00
2023-07-03T05:23:24.633Z,94998.00
2023-07-03T05:24:24.692Z,94998.00
2023-07-03T05:25:24.717Z,94996.00
2023-07-03T05:26:24.850Z,94998.00
2023-07-03T05:27:24.738Z,94998.00
2023-07-03T05:28:24.733Z,95002.00
2023-07-03T05:29:24.765Z,95006.00
2023-07-03T05:30:24.760Z,95004.00
2023-07-03T05:31:25.019Z,95004.00
2023-07-03T05:32:24.980Z,95004.00
2023-07-03T05:33:24.963Z,95002.00
2023-07-03T05:34:24.990Z,95002.00
2023-07-03T05:35:24.979Z,95004.00
2023-07-03T05:36:25.492Z,95004.00
2023-07-03T05:37:25.101Z,95002.00
2023-07-03T05:38:25.300Z,95002.00
2023-07-03T05:39:25.245Z,95002.00
2023-07-03T05:40:25.340Z,95000.00
2023-07-03T05:41:25.939Z,95000.00
2023-07-03T05:42:27.612Z,95002.00
2023-07-03T05:43:25.450Z,95002.00
2023-07-03T05:44:25.696Z,95004.00
2023-07-03T05:46:52.871Z,95004.00
2023-07-03T05:47:45.297Z,95008.00
2023-07-03T05:48:45.290Z,95008.00
2023-07-03T05:49:45.324Z,95008.00
2023-07-03T05:50:45.552Z,95008.00
2023-07-03T05:51:45.151Z,95010.00
2023-07-03T05:52:45.151Z,95006.00
2023-07-03T05:53:45.129Z,95004.00
2023-07-03T05:54:45.154Z,95006.00
2023-07-03T05:55:45.121Z,95004.00
2023-07-03T05:56:45.434Z,95010.00
2023-07-03T05:57:45.122Z,95008.00
2023-07-03T05:58:45.245Z,95010.00
2023-07-03T05:59:45.109Z,95010.00
2023-07-03T06:00:45.161Z,95012.00
2023-07-03T06:01:46.697Z,95016.00
2023-07-03T06:02:45.071Z,95014.00
2023-07-03T06:03:45.186Z,95016.00
2023-07-03T06:04:45.212Z,95016.00
2023-07-03T06:05:45.239Z,95016.00
2023-07-03T06:06:45.447Z,95016.00
2023-07-03T06:07:45.350Z,95016.00
2023-07-03T06:08:45.364Z,95014.00
2023-07-03T06:09:45.357Z,95014.00
2023-07-03T06:10:45.461Z,95014.00
2023-07-03T06:11:45.417Z,95014.00
2023-07-03T06:12:45.452Z,95014.00
2023-07-03T06:13:46.416Z,95016.00
2023-07-03T06:14:45.448Z,95014.00
2023-07-03T06:15:45.540Z,95012.00
2023-07-03T06:16:45.971Z,95014.00
2023-07-03T06:17:45.702Z,95012.00
2023-07-03T06:18:46.486Z,95014.00
2023-07-03T06:19:45.643Z,95016.00
2023-07-03T06:20:45.600Z,95014.00
2023-07-03T06:21:45.923Z,95010.00
2023-07-03T06:22:45.666Z,95014.00
2023-07-03T06:23:45.743Z,95014.00
2023-07-03T06:24:45.715Z,95012.00
2023-07-03T06:25:45.729Z,95010.00
2023-07-03T06:26:45.948Z,95010.00
2023-07-03T06:27:45.799Z,95010.00
2023-07-03T06:28:45.803Z,95010.00
2023-07-03T06:29:45.861Z,95012.00
2023-07-03T06:30:46.750Z,95008.00
2023-07-03T06:31:45.952Z,95006.00
2023-07-03T06:32:45.964Z,95002.00
2023-07-03T06:33:45.922Z,95002.00
2023-07-03T06:34:45.876Z,95004.00
2023-07-03T06:35:46.077Z,95004.00
2023-07-03T06:36:46.451Z,95002.00
2023-07-03T06:37:46.085Z,95002.00
2023-07-03T06:38:46.011Z,95000.00
2023-07-03T06:39:46.085Z,95000.00
2023-07-03T06:40:46.173Z,95002.00
2023-07-03T06:41:46.462Z,94998.00
2023-07-03T06:42:46.062Z,94998.00
2023-07-03T06:43:46.084Z,94998.00
2023-07-03T06:44:46.135Z,95000.00
2023-07-03T06:45:46.117Z,95002.00
2023-07-03T06:46:46.163Z,95002.00
2023-07-03T06:47:46.147Z,95002.00
2023-07-03T06:48:46.174Z,95002.00
2023-07-03T06:49:46.142Z,95002.00
2023-07-03T06:50:46.101Z,94998.00
2023-07-03T06:51:46.413Z,95000.00
2023-07-03T06:52:46.258Z,95006.00
2023-07-03T06:53:47.316Z,95006.00
2023-07-03T06:54:46.343Z,95002.00
2023-07-03T06:55:46.398Z,95002.00
2023-07-03T06:56:47.081Z,95002.00
2023-07-03T06:57:46.510Z,95002.00
2023-07-03T06:58:46.566Z,95000.00
2023-07-03T06:59:46.629Z,95000.00
2023-07-03T07:00:46.669Z,94998.00
2023-07-03T07:01:46.994Z,94994.00
2023-07-03T07:02:46.786Z,94996.00
2023-07-03T07:03:47.500Z,94996.00
2023-07-03T07:04:47.050Z,94996.00
2023-07-03T07:05:47.088Z,94996.00
2023-07-03T07:06:48.052Z,94996.00
2023-07-03T07:07:47.303Z,94994.00
2023-07-03T07:08:47.071Z,94992.00
2023-07-03T07:09:47.233Z,94994.00
2023-07-03T07:10:47.223Z,94990.00
2023-07-03T07:11:49.139Z,94990.00
2023-07-03T07:12:49.068Z,94988.00
2023-07-03T07:13:47.206Z,94990.00
2023-07-03T07:14:48.267Z,94988.00
2023-07-03T07:15:47.122Z,94986.00
2023-07-03T07:16:47.513Z,94984.00
2023-07-03T07:17:52.317Z,94981.00
2023-07-03T07:18:48.214Z,94982.00
2023-07-03T07:19:47.123Z,94981.00
2023-07-03T07:20:47.138Z,94981.00
2023-07-03T07:21:49.024Z,94982.00
2023-07-03T07:22:47.149Z,94981.00
2023-07-03T07:23:47.184Z,94981.00
2023-07-03T07:24:48.223Z,94984.00
2023-07-03T07:25:47.194Z,94984.00
2023-07-03T07:26:47.483Z,94981.00
2023-07-03T07:27:47.092Z,94979.00
2023-07-03T07:28:47.085Z,94977.00
2023-07-03T07:29:47.071Z,94979.00
2023-07-03T07:30:47.072Z,94977.00
2023-07-03T07:31:47.472Z,94979.00
2023-07-03T07:32:47.081Z,94977.00
2023-07-03T07:33:47.022Z,94973.00
2023-07-03T07:34:47.027Z,94973.00
2023-07-03T07:35:47.099Z,94975.00
2023-07-03T07:36:47.447Z,94973.00
2023-07-03T07:37:47.255Z,94973.00
2023-07-03T07:38:47.322Z,94975.00
2023-07-03T07:39:47.359Z,94973.00
2023-07-03T07:40:47.361Z,94971.00
2023-07-03T07:41:47.642Z,94973.00
2023-07-03T07:42:47.445Z,94971.00
2023-07-03T07:43:47.598Z,94975.00
2023-07-03T07:44:47.591Z,94977.00
2023-07-03T07:45:48.306Z,94975.00
2023-07-03T07:46:48.269Z,94971.00
2023-07-03T07:47:47.751Z,94975.00
2023-07-03T07:48:47.702Z,94977.00
2023-07-03T07:49:48.482Z,94977.00
2023-07-03T07:50:47.750Z,94975.00
2023-07-03T07:51:47.874Z,94975.00
2023-07-03T07:52:48.109Z,94975.00
2023-07-03T07:53:47.821Z,94975.00
2023-07-03T07:54:47.770Z,94973.00
2023-07-03T07:55:47.851Z,94973.00
2023-07-03T07:56:47.771Z,94973.00
2023-07-03T07:57:47.869Z,94971.00
2023-07-03T07:58:47.812Z,94973.00
2023-07-03T07:59:48.165Z,94975.00
2023-07-03T08:00:47.755Z,94973.00
2023-07-03T08:01:47.887Z,94977.00
2023-07-03T08:02:47.939Z,94977.00
2023-07-03T08:03:47.975Z,94975.00
2023-07-03T08:04:47.907Z,94973.00
2023-07-03T08:05:48.041Z,94973.00
2023-07-03T08:06:47.960Z,94973.00
2023-07-03T08:07:48.464Z,94975.00
2023-07-03T08:08:47.961Z,94977.00
2023-07-03T08:09:48.030Z,94975.00
2023-07-03T08:10:48.040Z,94973.00
2023-07-03T08:11:48.036Z,94975.00
2023-07-03T08:12:48.434Z,94977.00
2023-07-03T08:13:48.662Z,94977.00
2023-07-03T08:14:48.156Z,94977.00
2023-07-03T08:15:48.227Z,94979.00
2023-07-03T08:16:48.388Z,94975.00
2023-07-03T08:17:48.570Z,94979.00
2023-07-03T08:18:50.078Z,94981.00
2023-07-03T08:19:48.274Z,94979.00
2023-07-03T08:20:48.291Z,94979.00
2023-07-03T08:21:48.276Z,94981.00
2023-07-03T08:22:48.467Z,94977.00
2023-07-03T08:23:48.340Z,94975.00
2023-07-03T08:24:48.370Z,94977.00
2023-07-03T08:25:48.637Z,94979.00
2023-07-03T08:26:48.457Z,94981.00
2023-07-03T08:27:48.483Z,94979.00
2023-07-03T08:28:48.498Z,94977.00
2023-07-03T08:29:48.521Z,94981.00
2023-07-03T08:30:48.642Z,94979.00
2023-07-03T08:31:48.672Z,94979.00
2023-07-03T08:32:49.016Z,94975.00
2023-07-03T08:33:48.726Z,94975.00
2023-07-03T08:37:49.084Z,94977.00
2023-07-03T08:38:48.784Z,94973.00
2023-07-03T08:39:48.804Z,94973.00
2023-07-03T08:40:48.909Z,94973.00
2023-07-03T08:41:48.721Z,94973.00
2023-07-03T08:42:48.959Z,94971.00
2023-07-03T08:43:48.706Z,94969.00
2023-07-03T08:44:48.719Z,94969.00
2023-07-03T08:45:48.743Z,94969.00
2023-07-03T08:47:01.941Z,94973.00
2023-07-03T08:47:49.693Z,94969.00
2023-07-03T08:48:48.667Z,94973.00
2023-07-03T08:49:48.640Z,94969.00
2023-07-03T08:50:48.614Z,94969.00
2023-07-03T08:51:48.622Z,94959.00
2023-07-03T08:52:49.050Z,94957.00
2023-07-03T08:53:48.629Z,94959.00
2023-07-03T08:54:48.685Z,94959.00
2023-07-03T08:55:48.661Z,94955.00
2023-07-03T08:56:48.609Z,94957.00
2023-07-03T08:57:49.955Z,94963.00
2023-07-03T08:58:48.642Z,94963.00
2023-07-03T08:59:48.673Z,94965.00
2023-07-03T09:00:48.936Z,94961.00
2023-07-03T09:01:48.858Z,94963.00
2023-07-03T09:02:48.872Z,94967.00
2023-07-03T09:03:48.898Z,94965.00
2023-07-03T09:04:49.244Z,94963.00
2023-07-03T09:05:49.199Z,94963.00
2023-07-03T09:06:48.929Z,94959.00
2023-07-03T09:07:49.001Z,94959.00
2023-07-03T09:08:49.036Z,94959.00
2023-07-03T09:09:49.063Z,94957.00
2023-07-03T09:10:49.120Z,94961.00
2023-07-03T09:11:49.540Z,94957.00
2023-07-03T09:12:49.172Z,94961.00
2023-07-03T09:13:49.207Z,94961.00
2023-07-03T09:14:49.240Z,94963.00
2023-07-03T09:15:49.532Z,94963.00
2023-07-03T09:16:49.438Z,94959.00
2023-07-03T09:17:49.593Z,94953.00
2023-07-03T09:18:49.270Z,94955.00
2023-07-03T09:19:49.313Z,94957.00
2023-07-03T09:20:49.604Z,94955.00
2023-07-03T09:21:49.401Z,94959.00
2023-07-03T09:22:49.512Z,94957.00
2023-07-03T09:23:49.484Z,94957.00
2023-07-03T09:24:50.402Z,94953.00
2023-07-03T09:25:50.004Z,94951.00
2023-07-03T09:26:49.727Z,94953.00
2023-07-03T09:27:50.042Z,94949.00
2023-07-03T09:28:49.618Z,94951.00
2023-07-03T09:29:50.024Z,94951.00
2023-07-03T09:30:50.187Z,94951.00
2023-07-03T09:32:50.232Z,94951.00
2023-07-03T09:33:49.873Z,94949.00
2023-07-03T09:34:49.845Z,94947.00
2023-07-03T09:35:50.072Z,94947.00
2023-07-03T09:36:49.901Z,94945.00
2023-07-03T09:37:50.021Z,94943.00
2023-07-03T09:38:50.021Z,94947.00
2023-07-03T09:39:50.071Z,94943.00
2023-07-03T09:40:50.146Z,94941.00
2023-07-03T09:41:50.125Z,94939.00
2023-07-03T09:42:50.526Z,94935.00
2023-07-03T09:43:50.156Z,94939.00
2023-07-03T09:44:50.221Z,94937.00
2023-07-03T09:45:50.356Z,94937.00
2023-07-03T09:46:50.318Z,94935.00
2023-07-03T09:47:50.655Z,94943.00
2023-07-03T09:48:50.392Z,94939.00
2023-07-03T09:49:50.551Z,94934.00
2023-07-03T09:51:05.698Z,94935.00
2023-07-03T09:51:51.492Z,94934.00
2023-07-03T09:53:03.549Z,94930.00
2023-07-03T09:53:51.395Z,94932.00
2023-07-03T09:54:50.390Z,94932.00
2023-07-03T09:55:50.521Z,94932.00
2023-07-03T09:56:50.389Z,94926.00
2023-07-03T09:57:50.487Z,94930.00
2023-07-03T09:58:50.345Z,94926.00
2023-07-03T09:59:50.364Z,94926.00
2023-07-03T10:00:50.557Z,94918.00
2023-07-03T10:03:50.539Z,94920.00
2023-07-03T10:06:50.340Z,94920.00
2023-07-03T10:07:51.192Z,94916.00
2023-07-03T10:08:50.447Z,94914.00
2023-07-03T10:11:50.385Z,94912.00
2023-07-03T10:12:50.517Z,94912.00
2023-07-03T10:13:50.250Z,94912.00
2023-07-03T10:14:50.263Z,94904.00
2023-07-03T10:15:50.367Z,94902.00
2023-07-03T10:16:50.357Z,94902.00
2023-07-03T10:17:50.374Z,94902.00
2023-07-03T10:18:50.252Z,94900.00
2023-07-03T10:19:50.203Z,94896.00
2023-07-03T10:20:50.288Z,94896.00
2023-07-03T10:21:50.343Z,94900.00
2023-07-03T10:22:50.224Z,94902.00
2023-07-03T10:23:50.221Z,94896.00
2023-07-03T10:24:50.228Z,94898.00
2023-07-03T10:25:50.519Z,94896.00
2023-07-03T10:26:50.185Z,94898.00
2023-07-03T10:27:50.145Z,94896.00
2023-07-03T10:28:50.500Z,94898.00
2023-07-03T10:29:51.141Z,94898.00
2023-07-03T10:30:50.161Z,94894.00
2023-07-03T10:31:50.220Z,94894.00
2023-07-03T10:32:50.150Z,94894.00
2023-07-03T10:33:50.486Z,94890.00
2023-07-03T10:34:50.137Z,94896.00
2023-07-03T10:35:50.612Z,94892.00
2023-07-03T10:36:50.122Z,94888.00
2023-07-03T10:37:50.167Z,94890.00
2023-07-03T10:38:50.536Z,94894.00
2023-07-03T10:39:50.127Z,94890.00
2023-07-03T10:40:50.396Z,94882.00
2023-07-03T10:41:50.128Z,94881.00
2023-07-03T10:42:50.084Z,94881.00
2023-07-03T10:43:50.062Z,94884.00
2023-07-03T10:44:50.058Z,94882.00
2023-07-03T10:45:50.508Z,94884.00
2023-07-03T10:46:50.095Z,94894.00
2023-07-03T10:47:50.051Z,94886.00
2023-07-03T10:48:50.025Z,94888.00
2023-07-03T10:49:49.981Z,94884.00
2023-07-03T10:50:50.239Z,94881.00
2023-07-03T10:51:50.021Z,94882.00
2023-07-03T10:52:50.059Z,94888.00
2023-07-03T10:53:50.057Z,94884.00
2023-07-03T10:54:50.065Z,94886.00
2023-07-03T10:55:50.273Z,94890.00
2023-07-03T10:56:49.991Z,94884.00
2023-07-03T10:57:49.942Z,94884.00
2023-07-03T10:58:50.540Z,94882.00
2023-07-03T10:59:49.959Z,94884.00
2023-07-03T11:00:49.955Z,94873.00
2023-07-03T11:01:50.129Z,94877.00
2023-07-03T11:02:50.006Z,94877.00
2023-07-03T11:04:01.066Z,94873.00
2023-07-03T11:04:51.068Z,94875.00
2023-07-03T11:05:50.305Z,94881.00
2023-07-03T11:06:50.003Z,94875.00
2023-07-03T11:07:50.007Z,94871.00
2023-07-03T11:08:49.964Z,94871.00
2023-07-03T11:09:50.027Z,94871.00
2023-07-03T11:10:49.982Z,94865.00
2023-07-03T11:11:49.971Z,94869.00
2023-07-03T11:12:49.953Z,94867.00
2023-07-03T11:13:50.008Z,94861.00
2023-07-03T11:14:49.944Z,94867.00
2023-07-03T11:15:50.184Z,94865.00
2023-07-03T11:16:50.040Z,94865.00
2023-07-03T11:19:49.993Z,94859.00
2023-07-03T11:22:49.910Z,94859.00
2023-07-03T11:23:50.006Z,94855.00
2023-07-03T11:24:49.925Z,94853.00
2023-07-03T11:28:49.907Z,94855.00
2023-07-03T11:29:49.894Z,94855.00
2023-07-03T11:30:50.263Z,94855.00
2023-07-03T11:31:50.908Z,94855.00
2023-07-03T11:32:49.853Z,94851.00
2023-07-03T11:36:51.865Z,94849.00
2023-07-03T11:39:49.860Z,94849.00
2023-07-03T11:40:50.055Z,94845.00
2023-07-03T11:43:49.783Z,94847.00
2023-07-03T11:44:49.847Z,94841.00
2023-07-03T11:45:50.091Z,94847.00
2023-07-03T11:46:49.797Z,94839.00
2023-07-03T11:47:49.767Z,94841.00
2023-07-03T11:48:49.814Z,94841.00
2023-07-03T11:49:49.748Z,94847.00
2023-07-03T11:50:49.746Z,94845.00
2023-07-03T11:51:49.733Z,94835.00
2023-07-03T11:52:49.708Z,94839.00
2023-07-03T11:53:49.769Z,94835.00
2023-07-03T11:54:49.717Z,94841.00
2023-07-03T11:55:50.017Z,94839.00
2023-07-03T11:56:49.680Z,94834.00
2023-07-03T11:57:53.040Z,94832.00
2023-07-03T11:58:50.728Z,94832.00
2023-07-03T11:59:49.650Z,94834.00
2023-07-03T12:00:49.696Z,94822.00
2023-07-03T12:01:49.668Z,94824.00
2023-07-03T12:02:49.720Z,94826.00
2023-07-03T12:03:49.708Z,94822.00
2023-07-03T12:04:50.345Z,94824.00
2023-07-03T12:05:49.914Z,94824.00
2023-07-03T12:06:49.616Z,94822.00
2023-07-03T12:07:49.636Z,94824.00
2023-07-03T12:08:49.633Z,94822.00
2023-07-03T12:09:49.618Z,94818.00
2023-07-03T12:10:49.588Z,94818.00
2023-07-03T12:11:49.662Z,94822.00